Costa Fortuna — IBNY — position and weather

sailwx.info

Track history (hours):
 
Tides and Currents Weather Stations Pressure Air Temp Water Temp Dewpoint Dewpoint Depression Visibility Wind Speed Wind Dir Waves Ship Positions

Costa Fortuna

Last reported at 2018-May-25 22:58 UTC. Time now 2018-May-26 13:54 UTC.
Position N 38°03' E 122°16'.

Length 272 m; draft 8.3 m.

Type: Ship. MMSI: 247094800.

Date/timePositionNaut miles runAvg speedWind from/ knotsBaromVisibWave heightAir tempDewpointWater temp
2018-May-25 22:58N 38°03' E 122°16'917.0
2018-May-25 22:25N 38°07' E 122°05'717.2
2018-May-25 22:00N 38°09' E 121°57'917.3
2018-May-25 21:28N 38°12' E 121°46'817.5
2018-May-25 21:00N 38°14' E 121°36'1017.9
2018-May-25 20:28N 38°19' E 121°25'818.0
2018-May-25 20:00N 38°23' E 121°16'1017.3
2018-May-25 19:26N 38°27' E 121°04'715.7
2018-May-25 19:00N 38°31' E 120°57'1211.7
2018-May-25 18:01N 38°34' E 120°43'417.3
2018-May-25 17:46N 38°35' E 120°38'517.5
2018-May-25 17:30N 38°35' E 120°32'817.2
2018-May-25 17:00N 38°37' E 120°21'917.3
2018-May-25 16:30N 38°39' E 120°10'817.0
2018-May-25 16:00N 38°40' E 119°59'1217.0
2018-May-25 15:17N 38°41' E 119°44'616.9
2018-May-25 14:57N 38°41' E 119°36'916.6
2018-May-25 14:25N 38°43' E 119°25'1916.3
2018-May-25 13:16N 38°46' E 119°02'52 2.6
2018-May-24 17:07N 38°44' E 120°09'216.5
2018-May-24 17:00N 38°44' E 120°11'1216.4
2018-May-24 16:16N 38°42' E 120°26'3514.9
2018-May-24 13:55N 38°30' E 121°08'817.9
2018-May-24 13:30N 38°27' E 121°17'53170.8
2018-May-24 06:00N 33°54' E 130°42'0 0.0 270 / 241005.0 5.4
2018-May-23 23:00N 33°54' E 130°42'40 3.1 210 / 291013.010.8 15.0
2018-May-23 10:00N 33°48' E 129°54'   260 / 101009.010.8 15.0
2018-May-21 05:02N 37°45' E 123°01'019.0
2018-May-21 05:00N 37°45' E 123°01'1020.2
2018-May-21 04:30N 37°49' E 122°49'2219.2
2018-May-21 03:20N 37°59' E 122°23'514.0
2018-May-21 03:00N 37°59' E 122°17'4 9.0
2018-May-21 02:31N 37°55' E 122°20'815.1
2018-May-21 02:01N 37°51' E 122°28'914.0
2018-May-21 01:24N 37°51' E 122°39'3 6.6
2018-May-21 01:00N 37°53' E 122°40'612.4
2018-May-21 00:30N 37°55' E 122°32'917.1
2018-May-21 00:00N 37°59' E 122°23'917.3
2018-May-20 23:30N 38°03' E 122°13'917.7
2018-May-20 23:00N 38°07' E 122°03'1017.9
2018-May-20 22:25N 38°12' E 121°51'718.0
2018-May-20 22:00N 38°15' E 121°42'3186.7
2018-May-20 22:00N 38°12' E 121°42'1020.3 060 / 191009.010.8
2018-May-20 21:30N 38°17' E 121°31'917.6
2018-May-20 21:00N 38°21' E 121°21'817.2
2018-May-20 20:30N 38°25' E 121°12'816.8
2018-May-20 20:00N 38°29' E 121°02'714.0
2018-May-20 19:30N 38°32' E 120°54'510.3
2018-May-20 19:00N 38°33' E 120°48'612.9
2018-May-20 18:31N 38°34' E 120°39'916.8
2018-May-20 18:00N 38°35' E 120°29'916.9
2018-May-20 17:29N 38°37' E 120°17'1016.9
2018-May-20 16:52N 38°38' E 120°04'716.9
2018-May-20 16:26N 38°40' E 119°55'817.1
2018-May-20 15:57N 38°40' E 119°45'60 2.4
2018-May-19 14:51N 38°34' E 121°01'616.8
2018-May-19 14:28N 38°31' E 121°09'2 5.3
2018-May-19 14:00N 38°30' E 121°06'10207.9 080 / 131015.027.0 13.0
2018-May-19 13:57N 38°26' E 121°18'816.9
2018-May-19 13:28N 38°22' E 121°27'1017.3
2018-May-19 12:52N 38°17' E 121°38'617.5
2018-May-19 12:31N 38°14' E 121°45'917.8
2018-May-19 11:59N 38°09' E 121°56'917.9
2018-May-19 11:31N 38°06' E 122°05'1018.0
2018-May-19 10:58N 38°01' E 122°16'918.0
2018-May-19 10:30N 37°57' E 122°26'917.8
2018-May-19 10:01N 37°52' E 122°35'917.4
2018-May-19 09:30N 37°47' E 122°44'9314.2
2018-May-19 03:00N 36°30' E 123°48'8019.9 050 / 191013.0 5.4 13.0
2018-May-18 23:00N 35°18' E 124°30'25718.4 030 / 151004.010.8 14.0
2018-May-18 09:00N 38°24' E 120°48'48415.1 030 / 261008.0 2.2
2018-May-17 01:00N 33°54' E 129°06'5016.7 160 / 241006.0 2.2 21.0
2018-May-16 22:00N 33°48' E 128°06'14618.3 170 / 231008.0 0.5 20.0
2018-May-16 14:00N 34°12' E 125°12'41934.9 160 / 241003.0 0.3 18.0
2018-May-16 02:00N 37°48' E 117°48'   190 / 13999.0 1.1 17.0
Track history (hours):
 
Tides and Currents Weather Stations Pressure Air Temp Water Temp Dewpoint Dewpoint Depression Visibility Wind Speed Wind Dir Waves Ship Positions

Costa Fortuna

Last reported at 2018-May-25 22:58 UTC. Time now 2018-May-26 13:54 UTC.
Position N 38°03' E 122°16'.

Length 272 m; draft 8.3 m.

Type: Ship. MMSI: 247094800.

Date/timePositionNaut miles runAvg speedWind from/ knotsBaromVisibWave heightAir tempDewpointWater temp
2018-May-25 22:58N 38°03' E 122°16'917.0
2018-May-25 22:25N 38°07' E 122°05'717.2
2018-May-25 22:00N 38°09' E 121°57'917.3
2018-May-25 21:28N 38°12' E 121°46'817.5
2018-May-25 21:00N 38°14' E 121°36'1017.9
2018-May-25 20:28N 38°19' E 121°25'818.0
2018-May-25 20:00N 38°23' E 121°16'1017.3
2018-May-25 19:26N 38°27' E 121°04'715.7
2018-May-25 19:00N 38°31' E 120°57'1211.7
2018-May-25 18:01N 38°34' E 120°43'417.3
2018-May-25 17:46N 38°35' E 120°38'517.5
2018-May-25 17:30N 38°35' E 120°32'817.2
2018-May-25 17:00N 38°37' E 120°21'917.3
2018-May-25 16:30N 38°39' E 120°10'817.0
2018-May-25 16:00N 38°40' E 119°59'1217.0
2018-May-25 15:17N 38°41' E 119°44'616.9
2018-May-25 14:57N 38°41' E 119°36'916.6
2018-May-25 14:25N 38°43' E 119°25'1916.3
2018-May-25 13:16N 38°46' E 119°02'52 2.6
2018-May-24 17:07N 38°44' E 120°09'216.5
2018-May-24 17:00N 38°44' E 120°11'1216.4
2018-May-24 16:16N 38°42' E 120°26'3514.9
2018-May-24 13:55N 38°30' E 121°08'817.9
2018-May-24 13:30N 38°27' E 121°17'53170.8
2018-May-24 06:00N 33°54' E 130°42'0 0.0 270 / 241005.0 5.4
2018-May-23 23:00N 33°54' E 130°42'40 3.1 210 / 291013.010.8 15.0
2018-May-23 10:00N 33°48' E 129°54'   260 / 101009.010.8 15.0
2018-May-21 05:02N 37°45' E 123°01'019.0
2018-May-21 05:00N 37°45' E 123°01'1020.2
2018-May-21 04:30N 37°49' E 122°49'2219.2
2018-May-21 03:20N 37°59' E 122°23'514.0
2018-May-21 03:00N 37°59' E 122°17'4 9.0
2018-May-21 02:31N 37°55' E 122°20'815.1
2018-May-21 02:01N 37°51' E 122°28'914.0
2018-May-21 01:24N 37°51' E 122°39'3 6.6
2018-May-21 01:00N 37°53' E 122°40'612.4
2018-May-21 00:30N 37°55' E 122°32'917.1
2018-May-21 00:00N 37°59' E 122°23'917.3
2018-May-20 23:30N 38°03' E 122°13'917.7
2018-May-20 23:00N 38°07' E 122°03'1017.9
2018-May-20 22:25N 38°12' E 121°51'718.0
2018-May-20 22:00N 38°15' E 121°42'3186.7
2018-May-20 22:00N 38°12' E 121°42'1020.3 060 / 191009.010.8
2018-May-20 21:30N 38°17' E 121°31'917.6
2018-May-20 21:00N 38°21' E 121°21'817.2
2018-May-20 20:30N 38°25' E 121°12'816.8
2018-May-20 20:00N 38°29' E 121°02'714.0
2018-May-20 19:30N 38°32' E 120°54'510.3
2018-May-20 19:00N 38°33' E 120°48'612.9
2018-May-20 18:31N 38°34' E 120°39'916.8
2018-May-20 18:00N 38°35' E 120°29'916.9
2018-May-20 17:29N 38°37' E 120°17'1016.9
2018-May-20 16:52N 38°38' E 120°04'716.9
2018-May-20 16:26N 38°40' E 119°55'817.1
2018-May-20 15:57N 38°40' E 119°45'60 2.4
2018-May-19 14:51N 38°34' E 121°01'616.8
2018-May-19 14:28N 38°31' E 121°09'2 5.3
2018-May-19 14:00N 38°30' E 121°06'10207.9 080 / 131015.027.0 13.0
2018-May-19 13:57N 38°26' E 121°18'816.9
2018-May-19 13:28N 38°22' E 121°27'1017.3
2018-May-19 12:52N 38°17' E 121°38'617.5
2018-May-19 12:31N 38°14' E 121°45'917.8
2018-May-19 11:59N 38°09' E 121°56'917.9
2018-May-19 11:31N 38°06' E 122°05'1018.0
2018-May-19 10:58N 38°01' E 122°16'918.0
2018-May-19 10:30N 37°57' E 122°26'917.8
2018-May-19 10:01N 37°52' E 122°35'917.4
2018-May-19 09:30N 37°47' E 122°44'9314.2
2018-May-19 03:00N 36°30' E 123°48'8019.9 050 / 191013.0 5.4 13.0
2018-May-18 23:00N 35°18' E 124°30'25718.4 030 / 151004.010.8 14.0
2018-May-18 09:00N 38°24' E 120°48'48415.1 030 / 261008.0 2.2
2018-May-17 01:00N 33°54' E 129°06'5016.7 160 / 241006.0 2.2 21.0
2018-May-16 22:00N 33°48' E 128°06'14618.3 170 / 231008.0 0.5 20.0
2018-May-16 14:00N 34°12' E 125°12'41934.9 160 / 241003.0 0.3 18.0
2018-May-16 02:00N 37°48' E 117°48'   190 / 13999.0 1.1 17.0

Dump ship's entire track history